Terminal Aerodrome Forecast
Issued by NWS

Home | Current Version | Previous Version | Text Only | Print | Product List | Glossary On
Versions: 1 2 3 4 5 6 7 8 9 10 11 12 13 14 15
000
FTUS45 KABQ 042336
TAFFMN
TAF
KFMN 042336Z 0500/0524 26007KT P6SM VCTS BKN080CB BKN140
      TEMPO 0500/0503 VRB20G32KT 5SM TSRA OVC045CB
     FM050500 12007KT P6SM VCSH BKN060 BKN120
     FM051400 VRB06KT P6SM SCT030 SCT100
     FM051800 26007KT P6SM VCSH SCT080 BKN140
     FM052100 24013KT P6SM VCTS BKN080CB BKN130=

USA.gov is the U.S. government's official web portal to all federal, state and local government web resources and services.